sensor_id;sensor_type;location;lat;lon;timestamp;P1;durP1;ratioP1;P2;durP2;ratioP2
65996;SDS011;52765;52.258;21.052;2023-07-30T00:01:42;3.33;;;2.70;;
65996;SDS011;52765;52.258;21.052;2023-07-30T00:04:07;3.38;;;2.42;;
65996;SDS011;52765;52.258;21.052;2023-07-30T00:06:33;4.03;;;2.78;;
65996;SDS011;52765;52.258;21.052;2023-07-30T00:08:59;2.90;;;2.25;;
65996;SDS011;52765;52.258;21.052;2023-07-30T00:11:24;4.03;;;2.60;;
65996;SDS011;52765;52.258;21.052;2023-07-30T00:13:50;2.83;;;2.33;;
65996;SDS011;52765;52.258;21.052;2023-07-30T00:16:15;3.70;;;2.60;;
65996;SDS011;52765;52.258;21.052;2023-07-30T00:18:41;4.90;;;2.38;;
65996;SDS011;52765;52.258;21.052;2023-07-30T00:21:06;4.75;;;2.88;;
65996;SDS011;52765;52.258;21.052;2023-07-30T00:23:31;3.55;;;2.75;;
65996;SDS011;52765;52.258;21.052;2023-07-30T00:25:57;5.18;;;2.67;;
65996;SDS011;52765;52.258;21.052;2023-07-30T00:28:22;5.28;;;2.80;;
65996;SDS011;52765;52.258;21.052;2023-07-30T00:30:48;5.68;;;2.83;;
65996;SDS011;52765;52.258;21.052;2023-07-30T00:33:14;5.18;;;2.97;;
65996;SDS011;52765;52.258;21.052;2023-07-30T00:35:39;4.70;;;2.72;;
65996;SDS011;52765;52.258;21.052;2023-07-30T00:38:04;4.78;;;2.97;;
65996;SDS011;52765;52.258;21.052;2023-07-30T00:40:30;4.85;;;2.92;;
65996;SDS011;52765;52.258;21.052;2023-07-30T00:42:55;7.55;;;3.05;;
65996;SDS011;52765;52.258;21.052;2023-07-30T00:45:21;8.13;;;3.28;;
65996;SDS011;52765;52.258;21.052;2023-07-30T00:47:46;3.67;;;2.97;;
65996;SDS011;52765;52.258;21.052;2023-07-30T00:50:13;4.95;;;3.33;;
65996;SDS011;52765;52.258;21.052;2023-07-30T00:52:40;5.32;;;2.97;;
65996;SDS011;52765;52.258;21.052;2023-07-30T00:55:06;3.35;;;2.92;;
65996;SDS011;52765;52.258;21.052;2023-07-30T00:57:33;7.25;;;3.20;;
65996;SDS011;52765;52.258;21.052;2023-07-30T01:00:01;4.50;;;3.10;;
65996;SDS011;52765;52.258;21.052;2023-07-30T01:02:29;4.43;;;2.70;;
65996;SDS011;52765;52.258;21.052;2023-07-30T01:04:56;5.88;;;2.60;;
65996;SDS011;52765;52.258;21.052;2023-07-30T01:07:22;6.45;;;3.50;;
65996;SDS011;52765;52.258;21.052;2023-07-30T01:09:47;6.32;;;2.85;;
65996;SDS011;52765;52.258;21.052;2023-07-30T01:12:13;5.53;;;2.63;;
65996;SDS011;52765;52.258;21.052;2023-07-30T01:14:39;3.00;;;2.60;;
65996;SDS011;52765;52.258;21.052;2023-07-30T01:17:05;4.18;;;2.30;;
65996;SDS011;52765;52.258;21.052;2023-07-30T01:19:31;4.07;;;2.28;;
65996;SDS011;52765;52.258;21.052;2023-07-30T01:21:56;4.07;;;2.53;;
65996;SDS011;52765;52.258;21.052;2023-07-30T01:24:23;3.10;;;2.17;;
65996;SDS011;52765;52.258;21.052;2023-07-30T01:29:22;4.85;;;2.40;;
65996;SDS011;52765;52.258;21.052;2023-07-30T01:31:55;5.28;;;2.63;;
65996;SDS011;52765;52.258;21.052;2023-07-30T01:34:26;3.15;;;1.90;;
65996;SDS011;52765;52.258;21.052;2023-07-30T01:36:53;3.83;;;2.47;;
65996;SDS011;52765;52.258;21.052;2023-07-30T01:39:19;2.92;;;2.33;;
65996;SDS011;52765;52.258;21.052;2023-07-30T01:41:45;4.65;;;2.20;;
65996;SDS011;52765;52.258;21.052;2023-07-30T01:44:11;2.80;;;2.22;;
65996;SDS011;52765;52.258;21.052;2023-07-30T01:46:36;4.78;;;1.98;;
65996;SDS011;52765;52.258;21.052;2023-07-30T01:49:02;3.35;;;2.10;;
65996;SDS011;52765;52.258;21.052;2023-07-30T01:51:27;4.68;;;2.30;;
65996;SDS011;52765;52.258;21.052;2023-07-30T01:53:53;3.30;;;2.08;;
65996;SDS011;52765;52.258;21.052;2023-07-30T01:56:18;3.55;;;2.10;;
65996;SDS011;52765;52.258;21.052;2023-07-30T01:58:43;3.63;;;2.20;;
65996;SDS011;52765;52.258;21.052;2023-07-30T02:01:09;3.85;;;2.40;;
65996;SDS011;52765;52.258;21.052;2023-07-30T02:03:34;2.17;;;1.70;;
65996;SDS011;52765;52.258;21.052;2023-07-30T02:06:00;3.00;;;2.15;;
65996;SDS011;52765;52.258;21.052;2023-07-30T02:08:25;3.25;;;1.85;;
65996;SDS011;52765;52.258;21.052;2023-07-30T02:10:54;2.42;;;2.08;;
65996;SDS011;52765;52.258;21.052;2023-07-30T02:13:21;2.40;;;2.10;;
65996;SDS011;52765;52.258;21.052;2023-07-30T02:15:46;4.22;;;2.30;;
65996;SDS011;52765;52.258;21.052;2023-07-30T02:18:11;4.38;;;2.38;;
65996;SDS011;52765;52.258;21.052;2023-07-30T02:20:37;4.40;;;2.55;;
65996;SDS011;52765;52.258;21.052;2023-07-30T02:23:02;3.83;;;2.40;;
65996;SDS011;52765;52.258;21.052;2023-07-30T02:25:28;3.33;;;2.55;;
65996;SDS011;52765;52.258;21.052;2023-07-30T02:27:53;4.00;;;2.70;;
65996;SDS011;52765;52.258;21.052;2023-07-30T02:30:19;2.80;;;2.50;;
65996;SDS011;52765;52.258;21.052;2023-07-30T02:32:44;3.50;;;3.20;;
65996;SDS011;52765;52.258;21.052;2023-07-30T02:35:09;6.75;;;3.00;;
65996;SDS011;52765;52.258;21.052;2023-07-30T02:37:35;4.55;;;3.15;;
65996;SDS011;52765;52.258;21.052;2023-07-30T02:40:00;4.50;;;3.10;;
65996;SDS011;52765;52.258;21.052;2023-07-30T02:42:29;8.23;;;3.33;;
65996;SDS011;52765;52.258;21.052;2023-07-30T02:44:55;3.78;;;3.03;;
65996;SDS011;52765;52.258;21.052;2023-07-30T02:47:20;5.47;;;3.85;;
65996;SDS011;52765;52.258;21.052;2023-07-30T02:49:46;4.93;;;3.80;;
65996;SDS011;52765;52.258;21.052;2023-07-30T02:52:11;4.07;;;3.67;;
65996;SDS011;52765;52.258;21.052;2023-07-30T02:54:36;5.38;;;3.92;;
65996;SDS011;52765;52.258;21.052;2023-07-30T02:57:02;4.85;;;3.50;;
65996;SDS011;52765;52.258;21.052;2023-07-30T02:59:27;5.05;;;3.53;;
65996;SDS011;52765;52.258;21.052;2023-07-30T03:01:53;5.60;;;3.70;;
65996;SDS011;52765;52.258;21.052;2023-07-30T03:04:18;6.43;;;3.88;;
65996;SDS011;52765;52.258;21.052;2023-07-30T03:06:43;5.53;;;4.05;;
65996;SDS011;52765;52.258;21.052;2023-07-30T03:09:09;6.30;;;4.05;;
65996;SDS011;52765;52.258;21.052;2023-07-30T03:11:34;8.25;;;4.80;;
65996;SDS011;52765;52.258;21.052;2023-07-30T03:14:00;8.35;;;4.72;;
65996;SDS011;52765;52.258;21.052;2023-07-30T03:16:25;7.03;;;4.53;;
65996;SDS011;52765;52.258;21.052;2023-07-30T03:18:50;7.05;;;4.40;;
65996;SDS011;52765;52.258;21.052;2023-07-30T03:21:16;6.63;;;4.85;;
65996;SDS011;52765;52.258;21.052;2023-07-30T03:23:41;5.95;;;4.85;;
65996;SDS011;52765;52.258;21.052;2023-07-30T03:26:09;7.82;;;4.82;;
65996;SDS011;52765;52.258;21.052;2023-07-30T03:28:35;6.85;;;4.68;;
65996;SDS011;52765;52.258;21.052;2023-07-30T03:31:00;8.30;;;4.47;;
65996;SDS011;52765;52.258;21.052;2023-07-30T03:33:25;5.68;;;4.57;;
65996;SDS011;52765;52.258;21.052;2023-07-30T03:35:51;5.22;;;4.53;;
65996;SDS011;52765;52.258;21.052;2023-07-30T03:38:16;6.78;;;4.65;;
65996;SDS011;52765;52.258;21.052;2023-07-30T03:40:42;5.57;;;3.97;;
65996;SDS011;52765;52.258;21.052;2023-07-30T03:43:07;10.38;;;4.28;;
65996;SDS011;52765;52.258;21.052;2023-07-30T03:45:33;5.75;;;4.20;;
65996;SDS011;52765;52.258;21.052;2023-07-30T03:47:58;7.07;;;4.47;;
65996;SDS011;52765;52.258;21.052;2023-07-30T03:50:24;7.10;;;4.22;;
65996;SDS011;52765;52.258;21.052;2023-07-30T03:52:49;9.45;;;4.53;;
65996;SDS011;52765;52.258;21.052;2023-07-30T03:55:15;6.93;;;4.40;;
65996;SDS011;52765;52.258;21.052;2023-07-30T03:57:40;7.13;;;4.90;;
65996;SDS011;52765;52.258;21.052;2023-07-30T04:00:06;6.60;;;4.20;;
65996;SDS011;52765;52.258;21.052;2023-07-30T04:02:32;8.32;;;4.88;;
65996;SDS011;52765;52.258;21.052;2023-07-30T04:04:57;8.15;;;4.40;;
65996;SDS011;52765;52.258;21.052;2023-07-30T04:07:23;7.25;;;4.43;;
65996;SDS011;52765;52.258;21.052;2023-07-30T04:09:48;8.32;;;5.10;;
65996;SDS011;52765;52.258;21.052;2023-07-30T04:12:14;6.28;;;4.60;;
65996;SDS011;52765;52.258;21.052;2023-07-30T04:14:39;7.32;;;4.68;;
65996;SDS011;52765;52.258;21.052;2023-07-30T04:17:05;6.15;;;4.25;;
65996;SDS011;52765;52.258;21.052;2023-07-30T04:19:30;5.38;;;4.25;;
65996;SDS011;52765;52.258;21.052;2023-07-30T04:21:55;6.93;;;4.03;;
65996;SDS011;52765;52.258;21.052;2023-07-30T04:24:21;5.68;;;3.90;;
65996;SDS011;52765;52.258;21.052;2023-07-30T04:26:46;6.20;;;4.07;;
65996;SDS011;52765;52.258;21.052;2023-07-30T04:29:12;4.53;;;3.25;;
65996;SDS011;52765;52.258;21.052;2023-07-30T04:31:39;4.88;;;3.70;;
65996;SDS011;52765;52.258;21.052;2023-07-30T04:34:04;7.00;;;3.97;;
65996;SDS011;52765;52.258;21.052;2023-07-30T04:36:30;6.10;;;4.07;;
65996;SDS011;52765;52.258;21.052;2023-07-30T04:38:55;5.55;;;3.88;;
65996;SDS011;52765;52.258;21.052;2023-07-30T04:41:21;8.07;;;4.10;;
65996;SDS011;52765;52.258;21.052;2023-07-30T04:43:46;8.43;;;4.53;;
65996;SDS011;52765;52.258;21.052;2023-07-30T04:46:12;6.20;;;4.10;;
65996;SDS011;52765;52.258;21.052;2023-07-30T04:48:37;9.88;;;4.47;;
65996;SDS011;52765;52.258;21.052;2023-07-30T04:51:03;4.03;;;3.55;;
65996;SDS011;52765;52.258;21.052;2023-07-30T04:53:28;6.85;;;3.60;;
65996;SDS011;52765;52.258;21.052;2023-07-30T04:55:55;5.70;;;3.75;;
65996;SDS011;52765;52.258;21.052;2023-07-30T04:58:22;5.93;;;3.40;;
65996;SDS011;52765;52.258;21.052;2023-07-30T05:00:47;4.80;;;3.72;;
65996;SDS011;52765;52.258;21.052;2023-07-30T05:03:13;4.97;;;4.38;;
65996;SDS011;52765;52.258;21.052;2023-07-30T05:05:39;5.57;;;4.20;;
65996;SDS011;52765;52.258;21.052;2023-07-30T05:08:05;6.03;;;5.13;;
65996;SDS011;52765;52.258;21.052;2023-07-30T05:10:30;8.43;;;5.75;;
65996;SDS011;52765;52.258;21.052;2023-07-30T05:12:56;7.20;;;4.85;;
65996;SDS011;52765;52.258;21.052;2023-07-30T05:15:21;5.45;;;4.85;;
65996;SDS011;52765;52.258;21.052;2023-07-30T05:17:46;9.52;;;5.95;;
65996;SDS011;52765;52.258;21.052;2023-07-30T05:20:12;8.23;;;4.75;;
65996;SDS011;52765;52.258;21.052;2023-07-30T05:22:37;4.63;;;4.20;;
65996;SDS011;52765;52.258;21.052;2023-07-30T05:25:03;10.50;;;6.30;;
65996;SDS011;52765;52.258;21.052;2023-07-30T05:27:28;5.82;;;4.60;;
65996;SDS011;52765;52.258;21.052;2023-07-30T05:29:56;7.03;;;4.65;;
65996;SDS011;52765;52.258;21.052;2023-07-30T05:32:22;4.13;;;3.70;;
65996;SDS011;52765;52.258;21.052;2023-07-30T05:34:47;5.63;;;3.72;;
65996;SDS011;52765;52.258;21.052;2023-07-30T05:37:13;4.18;;;3.70;;
65996;SDS011;52765;52.258;21.052;2023-07-30T05:39:38;5.32;;;3.78;;
65996;SDS011;52765;52.258;21.052;2023-07-30T05:42:03;5.63;;;4.07;;
65996;SDS011;52765;52.258;21.052;2023-07-30T05:44:29;4.40;;;3.50;;
65996;SDS011;52765;52.258;21.052;2023-07-30T05:46:54;5.85;;;3.78;;
65996;SDS011;52765;52.258;21.052;2023-07-30T05:49:20;4.15;;;3.22;;
65996;SDS011;52765;52.258;21.052;2023-07-30T05:51:45;4.07;;;3.20;;
65996;SDS011;52765;52.258;21.052;2023-07-30T05:54:12;4.32;;;3.50;;
65996;SDS011;52765;52.258;21.052;2023-07-30T05:56:38;4.75;;;3.75;;
65996;SDS011;52765;52.258;21.052;2023-07-30T05:59:03;4.60;;;4.10;;
65996;SDS011;52765;52.258;21.052;2023-07-30T06:01:29;13.57;;;7.10;;
65996;SDS011;52765;52.258;21.052;2023-07-30T06:03:54;5.60;;;4.43;;
65996;SDS011;52765;52.258;21.052;2023-07-30T06:06:19;5.90;;;5.03;;
65996;SDS011;52765;52.258;21.052;2023-07-30T06:08:52;6.18;;;4.65;;
65996;SDS011;52765;52.258;21.052;2023-07-30T06:11:18;8.77;;;5.85;;
65996;SDS011;52765;52.258;21.052;2023-07-30T06:13:43;9.23;;;7.13;;
65996;SDS011;52765;52.258;21.052;2023-07-30T06:16:09;6.93;;;5.38;;
65996;SDS011;52765;52.258;21.052;2023-07-30T06:18:35;7.05;;;4.28;;
65996;SDS011;52765;52.258;21.052;2023-07-30T06:21:00;6.25;;;4.32;;
65996;SDS011;52765;52.258;21.052;2023-07-30T06:23:26;6.75;;;4.20;;
65996;SDS011;52765;52.258;21.052;2023-07-30T06:25:51;4.25;;;3.85;;
65996;SDS011;52765;52.258;21.052;2023-07-30T06:28:17;7.72;;;4.28;;
65996;SDS011;52765;52.258;21.052;2023-07-30T06:30:42;5.95;;;3.50;;
65996;SDS011;52765;52.258;21.052;2023-07-30T06:33:08;5.43;;;3.38;;
65996;SDS011;52765;52.258;21.052;2023-07-30T06:35:33;5.25;;;3.03;;
65996;SDS011;52765;52.258;21.052;2023-07-30T06:37:59;4.93;;;3.00;;
65996;SDS011;52765;52.258;21.052;2023-07-30T06:40:24;4.47;;;3.17;;
65996;SDS011;52765;52.258;21.052;2023-07-30T06:42:50;6.40;;;3.00;;
65996;SDS011;52765;52.258;21.052;2023-07-30T06:45:15;3.47;;;2.83;;
65996;SDS011;52765;52.258;21.052;2023-07-30T06:47:41;5.38;;;3.03;;
65996;SDS011;52765;52.258;21.052;2023-07-30T06:50:06;5.78;;;3.50;;
65996;SDS011;52765;52.258;21.052;2023-07-30T06:52:33;8.63;;;3.65;;
65996;SDS011;52765;52.258;21.052;2023-07-30T06:55:00;4.75;;;3.72;;
65996;SDS011;52765;52.258;21.052;2023-07-30T06:57:26;9.93;;;5.93;;
65996;SDS011;52765;52.258;21.052;2023-07-30T06:59:51;7.10;;;4.50;;
65996;SDS011;52765;52.258;21.052;2023-07-30T07:02:17;5.93;;;4.20;;
65996;SDS011;52765;52.258;21.052;2023-07-30T07:04:42;9.15;;;4.00;;
65996;SDS011;52765;52.258;21.052;2023-07-30T07:07:07;9.77;;;5.10;;
65996;SDS011;52765;52.258;21.052;2023-07-30T07:09:33;6.57;;;4.00;;
65996;SDS011;52765;52.258;21.052;2023-07-30T07:11:58;5.18;;;3.33;;
65996;SDS011;52765;52.258;21.052;2023-07-30T07:14:25;7.55;;;3.88;;
65996;SDS011;52765;52.258;21.052;2023-07-30T07:16:51;4.88;;;3.40;;
65996;SDS011;52765;52.258;21.052;2023-07-30T07:19:18;5.43;;;3.35;;
65996;SDS011;52765;52.258;21.052;2023-07-30T07:21:44;5.78;;;3.42;;
65996;SDS011;52765;52.258;21.052;2023-07-30T07:24:09;9.05;;;4.50;;
65996;SDS011;52765;52.258;21.052;2023-07-30T07:26:35;6.28;;;4.78;;
65996;SDS011;52765;52.258;21.052;2023-07-30T07:29:00;7.60;;;4.32;;
65996;SDS011;52765;52.258;21.052;2023-07-30T07:31:26;7.43;;;4.40;;
65996;SDS011;52765;52.258;21.052;2023-07-30T07:33:52;7.70;;;4.72;;
65996;SDS011;52765;52.258;21.052;2023-07-30T07:36:17;9.07;;;4.53;;
65996;SDS011;52765;52.258;21.052;2023-07-30T07:38:43;6.93;;;4.55;;
65996;SDS011;52765;52.258;21.052;2023-07-30T07:41:13;5.65;;;4.28;;
65996;SDS011;52765;52.258;21.052;2023-07-30T07:43:40;6.63;;;4.10;;
65996;SDS011;52765;52.258;21.052;2023-07-30T07:46:05;6.78;;;4.28;;
65996;SDS011;52765;52.258;21.052;2023-07-30T07:48:38;7.10;;;4.25;;
65996;SDS011;52765;52.258;21.052;2023-07-30T07:51:07;8.05;;;4.38;;
65996;SDS011;52765;52.258;21.052;2023-07-30T07:53:34;7.85;;;4.57;;
65996;SDS011;52765;52.258;21.052;2023-07-30T07:55:59;5.50;;;3.85;;
65996;SDS011;52765;52.258;21.052;2023-07-30T07:58:24;7.20;;;4.57;;
65996;SDS011;52765;52.258;21.052;2023-07-30T08:00:50;5.40;;;4.20;;
65996;SDS011;52765;52.258;21.052;2023-07-30T08:03:15;6.22;;;4.28;;
65996;SDS011;52765;52.258;21.052;2023-07-30T08:05:41;8.13;;;3.95;;
65996;SDS011;52765;52.258;21.052;2023-07-30T08:08:06;7.78;;;4.28;;
65996;SDS011;52765;52.258;21.052;2023-07-30T08:10:32;8.98;;;4.07;;
65996;SDS011;52765;52.258;21.052;2023-07-30T08:12:57;9.43;;;3.85;;
65996;SDS011;52765;52.258;21.052;2023-07-30T08:15:23;6.53;;;3.75;;
65996;SDS011;52765;52.258;21.052;2023-07-30T08:17:48;5.10;;;3.40;;
65996;SDS011;52765;52.258;21.052;2023-07-30T08:20:16;5.93;;;4.05;;
65996;SDS011;52765;52.258;21.052;2023-07-30T08:22:42;8.10;;;3.38;;
65996;SDS011;52765;52.258;21.052;2023-07-30T08:25:07;4.70;;;3.33;;
65996;SDS011;52765;52.258;21.052;2023-07-30T08:27:33;5.45;;;3.25;;
65996;SDS011;52765;52.258;21.052;2023-07-30T08:30:01;5.78;;;3.40;;
65996;SDS011;52765;52.258;21.052;2023-07-30T08:32:27;6.55;;;3.65;;
65996;SDS011;52765;52.258;21.052;2023-07-30T08:34:52;6.93;;;3.53;;
65996;SDS011;52765;52.258;21.052;2023-07-30T08:37:17;4.95;;;3.65;;
65996;SDS011;52765;52.258;21.052;2023-07-30T08:39:43;6.25;;;3.45;;
65996;SDS011;52765;52.258;21.052;2023-07-30T08:42:08;7.35;;;3.42;;
65996;SDS011;52765;52.258;21.052;2023-07-30T08:44:34;6.18;;;3.50;;
65996;SDS011;52765;52.258;21.052;2023-07-30T08:47:00;8.05;;;3.55;;
65996;SDS011;52765;52.258;21.052;2023-07-30T08:49:25;4.88;;;3.40;;
65996;SDS011;52765;52.258;21.052;2023-07-30T08:51:53;4.85;;;3.40;;
65996;SDS011;52765;52.258;21.052;2023-07-30T08:54:19;5.05;;;3.17;;
65996;SDS011;52765;52.258;21.052;2023-07-30T08:56:45;5.35;;;3.10;;
65996;SDS011;52765;52.258;21.052;2023-07-30T08:59:12;6.60;;;3.17;;
65996;SDS011;52765;52.258;21.052;2023-07-30T09:01:38;5.38;;;3.63;;
65996;SDS011;52765;52.258;21.052;2023-07-30T09:04:06;4.75;;;3.10;;
65996;SDS011;52765;52.258;21.052;2023-07-30T09:06:32;4.70;;;3.17;;
65996;SDS011;52765;52.258;21.052;2023-07-30T09:08:57;3.75;;;3.13;;
65996;SDS011;52765;52.258;21.052;2023-07-30T09:11:26;5.13;;;3.50;;
65996;SDS011;52765;52.258;21.052;2023-07-30T09:13:55;4.40;;;3.47;;
65996;SDS011;52765;52.258;21.052;2023-07-30T09:16:26;4.28;;;2.80;;
65996;SDS011;52765;52.258;21.052;2023-07-30T09:18:52;5.70;;;3.03;;
65996;SDS011;52765;52.258;21.052;2023-07-30T09:21:18;6.50;;;3.13;;
65996;SDS011;52765;52.258;21.052;2023-07-30T09:23:45;4.97;;;3.00;;
65996;SDS011;52765;52.258;21.052;2023-07-30T09:26:12;4.40;;;2.88;;
65996;SDS011;52765;52.258;21.052;2023-07-30T09:28:39;4.65;;;3.20;;
65996;SDS011;52765;52.258;21.052;2023-07-30T09:31:05;4.95;;;3.00;;
65996;SDS011;52765;52.258;21.052;2023-07-30T09:33:32;4.05;;;3.10;;
65996;SDS011;52765;52.258;21.052;2023-07-30T09:36:02;4.40;;;2.97;;
65996;SDS011;52765;52.258;21.052;2023-07-30T09:38:27;5.30;;;2.70;;
65996;SDS011;52765;52.258;21.052;2023-07-30T09:40:59;4.85;;;3.05;;
65996;SDS011;52765;52.258;21.052;2023-07-30T09:43:31;5.65;;;3.13;;
65996;SDS011;52765;52.258;21.052;2023-07-30T09:46:01;4.63;;;3.20;;
65996;SDS011;52765;52.258;21.052;2023-07-30T09:48:29;5.65;;;3.08;;
65996;SDS011;52765;52.258;21.052;2023-07-30T09:50:57;4.68;;;3.08;;
65996;SDS011;52765;52.258;21.052;2023-07-30T09:53:24;3.20;;;2.63;;
65996;SDS011;52765;52.258;21.052;2023-07-30T09:55:50;3.72;;;3.08;;
65996;SDS011;52765;52.258;21.052;2023-07-30T09:58:15;3.72;;;2.70;;
65996;SDS011;52765;52.258;21.052;2023-07-30T10:00:41;3.60;;;3.08;;
65996;SDS011;52765;52.258;21.052;2023-07-30T10:03:09;3.53;;;2.88;;
65996;SDS011;52765;52.258;21.052;2023-07-30T10:05:37;5.50;;;2.85;;
65996;SDS011;52765;52.258;21.052;2023-07-30T10:08:11;4.03;;;2.92;;
65996;SDS011;52765;52.258;21.052;2023-07-30T10:10:45;4.13;;;2.75;;
65996;SDS011;52765;52.258;21.052;2023-07-30T10:13:12;3.38;;;2.50;;
65996;SDS011;52765;52.258;21.052;2023-07-30T10:15:38;3.40;;;2.70;;
65996;SDS011;52765;52.258;21.052;2023-07-30T10:18:04;5.47;;;2.95;;
65996;SDS011;52765;52.258;21.052;2023-07-30T10:20:30;3.97;;;2.50;;
65996;SDS011;52765;52.258;21.052;2023-07-30T10:22:58;4.95;;;2.80;;
65996;SDS011;52765;52.258;21.052;2023-07-30T10:28:08;3.40;;;2.50;;
65996;SDS011;52765;52.258;21.052;2023-07-30T10:30:34;4.55;;;2.58;;
65996;SDS011;52765;52.258;21.052;2023-07-30T10:33:00;4.63;;;2.80;;
65996;SDS011;52765;52.258;21.052;2023-07-30T10:38:00;4.85;;;2.97;;
65996;SDS011;52765;52.258;21.052;2023-07-30T10:40:25;3.20;;;2.88;;
65996;SDS011;52765;52.258;21.052;2023-07-30T10:42:53;4.60;;;2.78;;
65996;SDS011;52765;52.258;21.052;2023-07-30T10:45:18;5.75;;;2.75;;
65996;SDS011;52765;52.258;21.052;2023-07-30T10:47:43;2.60;;;2.40;;
65996;SDS011;52765;52.258;21.052;2023-07-30T10:50:09;8.25;;;5.43;;
65996;SDS011;52765;52.258;21.052;2023-07-30T10:52:36;4.60;;;4.03;;
65996;SDS011;52765;52.258;21.052;2023-07-30T10:55:02;12.27;;;6.15;;
65996;SDS011;52765;52.258;21.052;2023-07-30T10:57:30;4.25;;;3.00;;
65996;SDS011;52765;52.258;21.052;2023-07-30T10:59:59;5.72;;;3.22;;
65996;SDS011;52765;52.258;21.052;2023-07-30T11:02:25;8.27;;;2.97;;
65996;SDS011;52765;52.258;21.052;2023-07-30T11:04:50;6.40;;;2.95;;
65996;SDS011;52765;52.258;21.052;2023-07-30T11:07:17;4.65;;;2.55;;
65996;SDS011;52765;52.258;21.052;2023-07-30T11:09:44;4.50;;;3.30;;
65996;SDS011;52765;52.258;21.052;2023-07-30T11:12:09;5.38;;;3.20;;
65996;SDS011;52765;52.258;21.052;2023-07-30T11:14:35;4.63;;;3.25;;
65996;SDS011;52765;52.258;21.052;2023-07-30T11:17:01;4.10;;;3.15;;
65996;SDS011;52765;52.258;21.052;2023-07-30T11:19:27;5.72;;;3.20;;
65996;SDS011;52765;52.258;21.052;2023-07-30T11:21:54;4.82;;;3.00;;
65996;SDS011;52765;52.258;21.052;2023-07-30T11:24:21;7.50;;;5.18;;
65996;SDS011;52765;52.258;21.052;2023-07-30T11:27:07;5.88;;;4.40;;
65996;SDS011;52765;52.258;21.052;2023-07-30T11:29:33;4.80;;;3.20;;
65996;SDS011;52765;52.258;21.052;2023-07-30T11:31:58;3.67;;;3.05;;
65996;SDS011;52765;52.258;21.052;2023-07-30T11:34:25;3.30;;;2.97;;
65996;SDS011;52765;52.258;21.052;2023-07-30T11:36:51;3.47;;;2.63;;
65996;SDS011;52765;52.258;21.052;2023-07-30T11:39:17;3.75;;;3.00;;
65996;SDS011;52765;52.258;21.052;2023-07-30T11:41:43;4.07;;;2.95;;
65996;SDS011;52765;52.258;21.052;2023-07-30T11:44:09;4.13;;;3.00;;
65996;SDS011;52765;52.258;21.052;2023-07-30T11:46:54;2.95;;;2.70;;
65996;SDS011;52765;52.258;21.052;2023-07-30T11:49:20;3.78;;;3.00;;
65996;SDS011;52765;52.258;21.052;2023-07-30T11:51:46;4.60;;;2.88;;
65996;SDS011;52765;52.258;21.052;2023-07-30T11:54:19;5.50;;;2.83;;
65996;SDS011;52765;52.258;21.052;2023-07-30T11:56:46;3.30;;;2.80;;
65996;SDS011;52765;52.258;21.052;2023-07-30T11:59:12;3.78;;;3.38;;
65996;SDS011;52765;52.258;21.052;2023-07-30T12:01:37;4.78;;;3.05;;
65996;SDS011;52765;52.258;21.052;2023-07-30T12:04:04;4.72;;;3.38;;
65996;SDS011;52765;52.258;21.052;2023-07-30T12:06:38;4.50;;;3.28;;
65996;SDS011;52765;52.258;21.052;2023-07-30T12:09:14;6.75;;;3.38;;
65996;SDS011;52765;52.258;21.052;2023-07-30T12:11:49;7.88;;;5.22;;
65996;SDS011;52765;52.258;21.052;2023-07-30T12:14:18;6.65;;;4.65;;
65996;SDS011;52765;52.258;21.052;2023-07-30T12:16:44;5.57;;;3.30;;
65996;SDS011;52765;52.258;21.052;2023-07-30T12:19:10;5.63;;;3.42;;
65996;SDS011;52765;52.258;21.052;2023-07-30T12:21:35;5.70;;;3.28;;
65996;SDS011;52765;52.258;21.052;2023-07-30T12:24:02;6.47;;;3.33;;
65996;SDS011;52765;52.258;21.052;2023-07-30T12:26:32;7.00;;;3.60;;
65996;SDS011;52765;52.258;21.052;2023-07-30T12:28:58;4.88;;;3.13;;
65996;SDS011;52765;52.258;21.052;2023-07-30T12:31:24;4.03;;;3.30;;
65996;SDS011;52765;52.258;21.052;2023-07-30T12:33:50;3.80;;;2.90;;
65996;SDS011;52765;52.258;21.052;2023-07-30T12:36:16;3.53;;;3.15;;
65996;SDS011;52765;52.258;21.052;2023-07-30T12:38:41;4.88;;;3.00;;
65996;SDS011;52765;52.258;21.052;2023-07-30T12:41:07;4.30;;;2.92;;
65996;SDS011;52765;52.258;21.052;2023-07-30T12:43:34;4.00;;;3.20;;
65996;SDS011;52765;52.258;21.052;2023-07-30T12:46:01;3.63;;;2.53;;
65996;SDS011;52765;52.258;21.052;2023-07-30T12:48:26;4.32;;;3.03;;
65996;SDS011;52765;52.258;21.052;2023-07-30T12:50:52;3.83;;;3.13;;
65996;SDS011;52765;52.258;21.052;2023-07-30T12:53:17;4.10;;;3.15;;
65996;SDS011;52765;52.258;21.052;2023-07-30T12:55:43;3.85;;;3.20;;
65996;SDS011;52765;52.258;21.052;2023-07-30T12:58:08;8.07;;;5.65;;
65996;SDS011;52765;52.258;21.052;2023-07-30T13:00:34;4.28;;;3.13;;
65996;SDS011;52765;52.258;21.052;2023-07-30T13:02:59;3.65;;;2.78;;
65996;SDS011;52765;52.258;21.052;2023-07-30T13:05:25;5.88;;;3.17;;
65996;SDS011;52765;52.258;21.052;2023-07-30T13:07:51;5.72;;;2.72;;
65996;SDS011;52765;52.258;21.052;2023-07-30T13:10:16;3.38;;;2.72;;
65996;SDS011;52765;52.258;21.052;2023-07-30T13:12:42;2.47;;;2.28;;
65996;SDS011;52765;52.258;21.052;2023-07-30T13:15:07;3.70;;;2.80;;
65996;SDS011;52765;52.258;21.052;2023-07-30T13:17:33;4.80;;;2.83;;
65996;SDS011;52765;52.258;21.052;2023-07-30T13:19:59;3.05;;;2.47;;
65996;SDS011;52765;52.258;21.052;2023-07-30T13:22:24;2.67;;;2.40;;
65996;SDS011;52765;52.258;21.052;2023-07-30T13:24:50;2.67;;;2.40;;
65996;SDS011;52765;52.258;21.052;2023-07-30T13:27:16;4.10;;;2.60;;
65996;SDS011;52765;52.258;21.052;2023-07-30T13:29:42;2.80;;;2.38;;
65996;SDS011;52765;52.258;21.052;2023-07-30T13:32:07;3.10;;;2.78;;
65996;SDS011;52765;52.258;21.052;2023-07-30T13:34:33;2.35;;;2.15;;
65996;SDS011;52765;52.258;21.052;2023-07-30T13:36:59;3.35;;;2.75;;
65996;SDS011;52765;52.258;21.052;2023-07-30T13:39:24;3.65;;;2.45;;
65996;SDS011;52765;52.258;21.052;2023-07-30T13:41:50;3.28;;;2.20;;
65996;SDS011;52765;52.258;21.052;2023-07-30T13:44:15;2.95;;;2.58;;
65996;SDS011;52765;52.258;21.052;2023-07-30T13:46:40;8.32;;;5.40;;
65996;SDS011;52765;52.258;21.052;2023-07-30T13:49:06;4.82;;;3.53;;
65996;SDS011;52765;52.258;21.052;2023-07-30T13:51:32;5.40;;;3.10;;
65996;SDS011;52765;52.258;21.052;2023-07-30T13:54:01;4.13;;;2.22;;
65996;SDS011;52765;52.258;21.052;2023-07-30T13:56:28;3.03;;;2.72;;
65996;SDS011;52765;52.258;21.052;2023-07-30T13:58:54;3.17;;;2.75;;
65996;SDS011;52765;52.258;21.052;2023-07-30T14:01:20;3.78;;;2.88;;
65996;SDS011;52765;52.258;21.052;2023-07-30T14:03:45;3.40;;;2.70;;
65996;SDS011;52765;52.258;21.052;2023-07-30T14:06:10;5.53;;;3.22;;
65996;SDS011;52765;52.258;21.052;2023-07-30T14:08:36;4.93;;;3.03;;
65996;SDS011;52765;52.258;21.052;2023-07-30T14:11:02;5.95;;;3.50;;
65996;SDS011;52765;52.258;21.052;2023-07-30T14:13:27;4.38;;;3.28;;
65996;SDS011;52765;52.258;21.052;2023-07-30T14:15:52;3.00;;;2.58;;
65996;SDS011;52765;52.258;21.052;2023-07-30T14:18:18;3.30;;;3.00;;
65996;SDS011;52765;52.258;21.052;2023-07-30T14:20:44;4.43;;;3.60;;
65996;SDS011;52765;52.258;21.052;2023-07-30T14:23:09;5.35;;;3.13;;
65996;SDS011;52765;52.258;21.052;2023-07-30T14:25:36;5.20;;;3.17;;
65996;SDS011;52765;52.258;21.052;2023-07-30T14:28:02;4.20;;;3.33;;
65996;SDS011;52765;52.258;21.052;2023-07-30T14:30:27;4.78;;;3.63;;
65996;SDS011;52765;52.258;21.052;2023-07-30T14:32:53;6.53;;;3.60;;
65996;SDS011;52765;52.258;21.052;2023-07-30T14:35:18;5.07;;;3.63;;